createdAt,value
2017-11-17T00:01:02.241Z,23.70
2017-11-17T00:03:32.005Z,22.37
2017-11-17T00:06:00.077Z,22.40
2017-11-17T00:08:28.090Z,25.40
2017-11-17T00:10:57.013Z,22.60
2017-11-17T00:13:25.053Z,22.83
2017-11-17T00:15:54.017Z,24.63
2017-11-17T00:18:28.837Z,24.80
2017-11-17T00:20:56.874Z,21.85
2017-11-17T00:23:26.826Z,21.73
2017-11-17T00:25:55.758Z,20.55
2017-11-17T00:28:33.481Z,23.73
2017-11-17T00:31:02.550Z,21.02
2017-11-17T00:33:30.574Z,24.67
2017-11-17T00:35:59.554Z,23.92
2017-11-17T00:38:28.567Z,25.30
2017-11-17T00:40:56.591Z,20.42
2017-11-17T00:43:26.529Z,19.83
2017-11-17T00:45:54.569Z,23.60
2017-11-17T00:48:22.593Z,23.48
2017-11-17T00:50:51.393Z,22.00
2017-11-17T00:53:20.205Z,27.17
2017-11-17T00:55:50.170Z,23.52
2017-11-17T00:58:28.176Z,25.05
2017-11-17T01:01:02.556Z,25.30
2017-11-17T01:03:32.496Z,30.15
2017-11-17T01:06:02.437Z,26.85
2017-11-17T01:08:33.909Z,19.52
2017-11-17T01:11:02.833Z,20.55
2017-11-17T01:13:35.264Z,21.58
2017-11-17T01:16:04.061Z,24.15
2017-11-17T01:18:32.089Z,29.83
2017-11-17T01:21:00.129Z,22.02
2017-11-17T01:23:28.157Z,21.65
2017-11-17T01:26:01.094Z,25.85
2017-11-17T01:28:29.125Z,26.87
2017-11-17T01:30:58.901Z,28.17
2017-11-17T01:33:27.841Z,28.00
2017-11-17T01:35:59.761Z,28.15
2017-11-17T01:38:27.841Z,26.55
2017-11-17T01:40:58.532Z,25.33
2017-11-17T01:43:29.765Z,30.58
2017-11-17T01:45:58.800Z,27.73
2017-11-17T01:48:27.720Z,23.10
2017-11-17T01:50:56.665Z,28.33
2017-11-17T01:53:24.685Z,24.92
2017-11-17T01:55:53.665Z,25.95
2017-11-17T01:58:22.486Z,29.40
2017-11-17T02:00:50.509Z,25.75
2017-11-17T02:03:21.225Z,28.15
2017-11-17T02:08:25.830Z,36.53
2017-11-17T02:10:53.858Z,26.73
2017-11-17T02:13:22.645Z,33.85
2017-11-17T02:15:53.356Z,31.65
2017-11-17T02:18:23.265Z,30.10
2017-11-17T02:20:51.292Z,28.12
2017-11-17T02:23:19.324Z,26.87
2017-11-17T02:25:47.359Z,33.08
2017-11-17T02:28:15.385Z,26.27
2017-11-17T02:30:43.421Z,29.65
2017-11-17T02:33:14.357Z,25.70
2017-11-17T02:35:48.077Z,28.20
2017-11-17T02:38:16.868Z,29.15
2017-11-17T02:40:45.660Z,29.65
2017-11-17T02:43:14.458Z,24.02
2017-11-17T02:45:44.441Z,28.02
2017-11-17T02:48:12.464Z,30.55
2017-11-17T02:50:50.412Z,27.90
2017-11-17T02:53:18.441Z,27.33
2017-11-17T02:55:48.376Z,33.25
2017-11-17T02:58:22.933Z,40.50
2017-11-17T03:00:59.553Z,28.00
2017-11-17T03:03:34.488Z,30.48
2017-11-17T03:06:02.516Z,30.88
2017-11-17T03:08:39.064Z,30.98
2017-11-17T03:11:08.045Z,36.80
2017-11-17T03:13:39.112Z,35.33
2017-11-17T03:16:08.897Z,33.15
2017-11-17T03:18:37.812Z,28.83
2017-11-17T03:21:08.544Z,35.70
2017-11-17T03:23:37.344Z,32.60
2017-11-17T03:26:05.367Z,40.38
2017-11-17T03:28:34.376Z,34.15
2017-11-17T03:31:04.297Z,33.33
2017-11-17T03:33:33.267Z,32.28
2017-11-17T03:36:03.200Z,37.92
2017-11-17T03:38:32.924Z,38.63
2017-11-17T03:41:03.636Z,36.92
2017-11-17T03:43:37.813Z,40.40
2017-11-17T03:46:05.856Z,35.05
2017-11-17T03:48:34.792Z,39.75
2017-11-17T03:51:02.816Z,34.83
2017-11-17T03:53:30.856Z,33.97
2017-11-17T03:56:03.524Z,39.22
2017-11-17T03:58:36.320Z,40.72
2017-11-17T04:01:04.364Z,36.67
2017-11-17T04:03:33.360Z,38.25
2017-11-17T04:06:03.336Z,37.78
2017-11-17T04:08:37.440Z,42.65
2017-11-17T04:11:05.476Z,39.20
2017-11-17T04:13:45.380Z,35.78
2017-11-17T04:16:13.420Z,47.70
2017-11-17T04:18:45.035Z,43.00
2017-11-17T04:21:13.067Z,42.03
2017-11-17T04:23:47.288Z,41.75
2017-11-17T04:26:16.327Z,42.95
2017-11-17T04:28:44.351Z,44.05
2017-11-17T04:31:12.376Z,46.88
2017-11-17T04:33:42.179Z,45.92
2017-11-17T04:36:12.875Z,41.58
2017-11-17T04:38:41.902Z,38.42
2017-11-17T04:41:09.927Z,46.42
2017-11-17T04:43:37.948Z,49.92
2017-11-17T04:46:06.752Z,41.80
2017-11-17T04:48:34.787Z,51.80
2017-11-17T04:51:03.783Z,49.65
2017-11-17T04:53:32.785Z,46.92
2017-11-17T04:56:03.471Z,55.85
2017-11-17T04:58:32.441Z,54.13
2017-11-17T05:01:03.695Z,60.05
2017-11-17T05:03:32.755Z,64.32
2017-11-17T05:06:01.556Z,56.15
2017-11-17T05:08:30.336Z,62.30
2017-11-17T05:11:00.132Z,48.78
2017-11-17T05:13:30.119Z,61.63
2017-11-17T05:16:01.627Z,60.97
2017-11-17T05:18:30.543Z,63.65
2017-11-17T05:21:04.335Z,65.25
2017-11-17T05:23:34.275Z,72.85
2017-11-17T05:26:03.221Z,60.08
2017-11-17T05:28:31.227Z,64.35
2017-11-17T05:31:04.283Z,70.07
2017-11-17T05:33:33.251Z,59.10
2017-11-17T05:36:02.075Z,71.55
2017-11-17T05:38:31.116Z,70.60
2017-11-17T05:41:00.123Z,79.07
2017-11-17T05:43:33.796Z,75.05
2017-11-17T05:46:03.719Z,69.40
2017-11-17T05:48:39.266Z,74.90
2017-11-17T05:51:11.167Z,78.32
2017-11-17T05:53:39.203Z,65.43
2017-11-17T05:56:09.118Z,73.25
2017-11-17T05:58:37.194Z,84.57
2017-11-17T06:01:05.489Z,79.30
2017-11-17T06:03:40.063Z,78.45
2017-11-17T06:06:08.095Z,70.45
2017-11-17T06:08:37.038Z,85.55
2017-11-17T06:11:05.087Z,81.50
2017-11-17T06:13:37.627Z,85.97
2017-11-17T06:16:05.726Z,80.62
2017-11-17T06:18:34.618Z,83.85
2017-11-17T06:21:04.572Z,77.53
2017-11-17T06:23:32.607Z,79.85
2017-11-17T06:26:02.559Z,103.18
2017-11-17T06:28:30.606Z,87.37
2017-11-17T06:31:04.442Z,104.20
2017-11-17T06:33:35.470Z,124.30
2017-11-17T06:36:04.403Z,100.87
2017-11-17T06:38:32.430Z,92.25
2017-11-17T06:41:00.466Z,77.78
2017-11-17T06:43:32.274Z,90.45
2017-11-17T06:46:01.080Z,77.45
2017-11-17T06:48:29.129Z,91.68
2017-11-17T06:50:57.150Z,90.65
2017-11-17T06:53:25.204Z,80.87
2017-11-17T06:55:54.162Z,79.12
2017-11-17T06:58:22.183Z,83.43
2017-11-17T07:00:50.218Z,75.10
2017-11-17T07:03:18.241Z,96.05
2017-11-17T07:05:46.278Z,75.97
2017-11-17T07:08:15.949Z,86.35
2017-11-17T07:10:45.969Z,69.25
2017-11-17T07:13:18.010Z,74.43
2017-11-17T07:15:47.010Z,80.68
2017-11-17T07:18:16.314Z,68.80
2017-11-17T07:20:45.231Z,74.65
2017-11-17T07:23:13.290Z,79.82
2017-11-17T07:25:45.218Z,83.20
2017-11-17T07:28:14.018Z,88.22
2017-11-17T07:30:44.029Z,84.95
2017-11-17T07:33:13.982Z,73.10
2017-11-17T07:35:42.010Z,79.60
2017-11-17T07:38:10.046Z,74.90
2017-11-17T07:40:38.114Z,76.68
2017-11-17T07:43:06.134Z,85.75
2017-11-17T07:45:34.177Z,70.07
2017-11-17T07:48:05.101Z,75.75
2017-11-17T07:50:34.806Z,63.00
2017-11-17T07:53:04.753Z,70.30
2017-11-17T07:55:32.785Z,68.25
2017-11-17T07:58:00.821Z,79.60
2017-11-17T08:00:30.629Z,69.72
2017-11-17T08:03:01.431Z,62.50
2017-11-17T08:05:29.453Z,57.83
2017-11-17T08:07:59.438Z,55.12
2017-11-17T08:10:32.858Z,62.45
2017-11-17T08:13:01.819Z,56.95
2017-11-17T08:15:29.854Z,62.03
2017-11-17T08:18:11.538Z,56.30
2017-11-17T08:20:39.558Z,54.15
2017-11-17T08:23:10.298Z,55.72
2017-11-17T08:25:44.854Z,48.15
2017-11-17T08:28:13.649Z,56.95
2017-11-17T08:30:41.673Z,52.95
2017-11-17T08:33:10.500Z,44.67
2017-11-17T08:35:39.297Z,48.47
2017-11-17T08:41:08.685Z,49.35
2017-11-17T08:43:38.397Z,51.17
2017-11-17T08:46:06.433Z,39.65
2017-11-17T08:48:46.777Z,38.75
2017-11-17T08:51:14.815Z,44.75
2017-11-17T08:53:42.829Z,45.45
2017-11-17T08:56:14.626Z,47.83
2017-11-17T08:58:43.809Z,42.28
2017-11-17T09:01:17.893Z,47.88
2017-11-17T09:03:46.317Z,43.28
2017-11-17T09:06:18.453Z,43.92
2017-11-17T09:08:48.666Z,50.70
2017-11-17T09:11:17.842Z,48.65
2017-11-17T09:13:46.037Z,43.87
2017-11-17T09:16:14.121Z,45.00
2017-11-17T09:18:45.777Z,47.80
2017-11-17T09:21:16.481Z,50.75
2017-11-17T09:23:44.501Z,44.70
2017-11-17T09:26:13.557Z,46.88
2017-11-17T09:28:43.562Z,45.20
2017-11-17T09:31:12.493Z,51.80
2017-11-17T09:33:42.432Z,47.38
2017-11-17T09:36:13.702Z,46.05
2017-11-17T09:38:45.421Z,47.13
2017-11-17T09:41:13.442Z,41.47
2017-11-17T09:43:42.358Z,38.25
2017-11-17T09:46:11.165Z,38.08
2017-11-17T09:48:40.081Z,33.50
2017-11-17T09:51:09.997Z,41.33
2017-11-17T09:53:39.933Z,34.10
2017-11-17T09:56:09.770Z,36.47
2017-11-17T09:58:39.577Z,40.10
2017-11-17T10:01:07.661Z,32.88
2017-11-17T10:03:36.630Z,35.85
2017-11-17T10:06:06.565Z,33.25
2017-11-17T10:08:34.599Z,35.92
2017-11-17T10:11:02.622Z,35.22
2017-11-17T10:13:30.660Z,34.22
2017-11-17T10:15:59.657Z,32.00
2017-11-17T10:18:31.450Z,32.83
2017-11-17T10:20:59.461Z,35.85
2017-11-17T10:23:28.459Z,34.15
2017-11-17T10:25:56.482Z,33.05
2017-11-17T10:28:27.469Z,35.95
2017-11-17T10:30:56.221Z,35.65
2017-11-17T10:33:25.309Z,36.58
2017-11-17T10:35:57.006Z,36.25
2017-11-17T10:38:25.049Z,31.60
2017-11-17T10:40:58.369Z,34.95
2017-11-17T10:43:30.236Z,33.78
2017-11-17T10:45:58.265Z,34.08
2017-11-17T10:48:33.109Z,32.47
2017-11-17T10:51:04.473Z,40.47
2017-11-17T10:53:35.912Z,38.25
2017-11-17T10:56:04.921Z,30.70
2017-11-17T10:58:41.781Z,35.08
2017-11-17T11:01:10.029Z,27.35
2017-11-17T11:03:40.933Z,30.25
2017-11-17T11:06:09.702Z,35.83
2017-11-17T11:08:39.692Z,35.75
2017-11-17T11:11:13.375Z,31.33
2017-11-17T11:13:41.413Z,35.97
2017-11-17T11:16:10.209Z,26.98
2017-11-17T11:18:39.172Z,32.65
2017-11-17T11:21:07.201Z,27.75
2017-11-17T11:23:36.224Z,31.62
2017-11-17T11:26:05.162Z,28.62
2017-11-17T11:28:33.189Z,30.83
2017-11-17T11:31:02.212Z,26.12
2017-11-17T11:33:31.189Z,29.20
2017-11-17T11:35:59.209Z,27.77
2017-11-17T11:38:28.235Z,23.12
2017-11-17T11:40:56.281Z,31.10
2017-11-17T11:43:24.308Z,32.80
2017-11-17T11:45:56.862Z,28.95
2017-11-17T11:48:27.576Z,29.17
2017-11-17T11:50:59.147Z,23.75
2017-11-17T11:53:29.876Z,27.87
2017-11-17T11:55:58.819Z,29.98
2017-11-17T11:58:27.597Z,26.75
2017-11-17T12:00:55.870Z,31.42
2017-11-17T12:03:24.832Z,28.45
2017-11-17T12:05:52.875Z,26.58
2017-11-17T12:08:21.164Z,30.73
2017-11-17T12:10:54.212Z,31.50
2017-11-17T12:13:22.236Z,32.28
2017-11-17T12:15:51.040Z,33.70
2017-11-17T12:18:20.924Z,34.20
2017-11-17T12:20:48.950Z,42.20
2017-11-17T12:23:17.748Z,31.40
2017-11-17T12:25:47.702Z,37.67
2017-11-17T12:28:19.432Z,30.52
2017-11-17T12:30:47.464Z,34.33
2017-11-17T12:33:16.386Z,29.42
2017-11-17T12:35:44.417Z,26.25
2017-11-17T12:38:13.379Z,30.23
2017-11-17T12:40:43.142Z,38.60
2017-11-17T12:43:12.068Z,35.63
2017-11-17T12:45:41.060Z,31.35
2017-11-17T12:48:09.086Z,33.88
2017-11-17T12:50:37.104Z,32.92
2017-11-17T12:53:06.035Z,31.25
2017-11-17T12:55:35.996Z,35.17
2017-11-17T12:58:04.012Z,26.25
2017-11-17T13:00:32.971Z,32.75
2017-11-17T13:03:00.995Z,36.80
2017-11-17T13:05:30.923Z,35.60
2017-11-17T13:07:58.959Z,33.85
2017-11-17T13:10:29.935Z,33.63
2017-11-17T13:12:58.985Z,37.63
2017-11-17T13:15:28.759Z,32.25
2017-11-17T13:17:57.663Z,29.50
2017-11-17T13:20:30.327Z,29.00
2017-11-17T13:22:58.351Z,33.15
2017-11-17T13:25:27.379Z,30.67
2017-11-17T13:27:56.303Z,30.80
2017-11-17T13:30:25.983Z,32.88
2017-11-17T13:32:54.994Z,40.70
2017-11-17T13:35:23.015Z,32.78
2017-11-17T13:37:51.046Z,37.03
2017-11-17T13:40:20.736Z,32.40
2017-11-17T13:42:48.770Z,35.05
2017-11-17T13:45:16.803Z,31.42
2017-11-17T13:47:44.838Z,30.83
2017-11-17T13:50:14.775Z,35.33
2017-11-17T13:52:48.354Z,37.10
2017-11-17T13:55:16.387Z,40.78
2017-11-17T13:57:48.174Z,35.70
2017-11-17T14:00:16.195Z,41.17
2017-11-17T14:02:50.499Z,39.10
2017-11-17T14:05:18.555Z,37.60
2017-11-17T14:07:48.234Z,40.65
2017-11-17T14:10:20.110Z,45.45
2017-11-17T14:12:48.146Z,46.25
2017-11-17T14:15:16.178Z,43.13
2017-11-17T14:17:44.214Z,44.70
2017-11-17T14:20:12.246Z,43.28
2017-11-17T14:22:40.262Z,45.20
2017-11-17T14:25:12.338Z,43.13
2017-11-17T14:27:42.111Z,43.38
2017-11-17T14:30:10.130Z,41.83
2017-11-17T14:32:38.163Z,43.28
2017-11-17T14:35:06.187Z,126.68
2017-11-17T14:37:34.205Z,71.82
2017-11-17T14:40:04.227Z,44.28
2017-11-17T14:42:33.211Z,55.55
2017-11-17T14:45:02.199Z,45.72
2017-11-17T14:47:30.235Z,53.75
2017-11-17T14:49:58.242Z,44.78
2017-11-17T14:52:26.967Z,41.88
2017-11-17T14:54:56.904Z,41.95
2017-11-17T14:57:24.919Z,47.75
2017-11-17T15:00:00.631Z,52.47
2017-11-17T15:02:28.661Z,48.67
2017-11-17T15:04:59.367Z,55.60
2017-11-17T15:07:27.390Z,54.25
2017-11-17T15:10:02.553Z,55.90
2017-11-17T15:12:32.559Z,73.32
2017-11-17T15:15:02.487Z,61.88
2017-11-17T15:17:35.289Z,58.78
2017-11-17T15:20:05.300Z,61.00
2017-11-17T15:22:36.591Z,50.00
2017-11-17T15:25:05.538Z,61.03
2017-11-17T15:27:33.542Z,46.53
2017-11-17T15:30:01.599Z,53.33
2017-11-17T15:32:32.310Z,57.17
2017-11-17T15:35:01.231Z,64.12
2017-11-17T15:37:30.011Z,58.20
2017-11-17T15:40:04.290Z,59.13
2017-11-17T15:42:33.239Z,53.72
2017-11-17T15:45:02.020Z,47.78
2017-11-17T15:47:33.948Z,57.30
2017-11-17T15:50:01.977Z,55.90
2017-11-17T15:52:34.532Z,55.65
2017-11-17T15:55:02.547Z,55.25
2017-11-17T15:57:31.550Z,53.80
2017-11-17T15:59:59.579Z,61.22
2017-11-17T16:02:27.611Z,53.08
2017-11-17T16:04:58.313Z,60.00
2017-11-17T16:07:27.270Z,68.30
2017-11-17T16:09:57.199Z,58.28
2017-11-17T16:12:27.154Z,66.50
2017-11-17T16:14:59.714Z,62.10
2017-11-17T16:17:27.746Z,55.55
2017-11-17T16:19:55.766Z,62.58
2017-11-17T16:22:28.419Z,75.95
2017-11-17T16:24:58.458Z,61.15
2017-11-17T16:27:27.442Z,58.00
2017-11-17T16:29:59.418Z,58.50
2017-11-17T16:32:34.038Z,53.30
2017-11-17T16:35:02.981Z,52.72
2017-11-17T16:37:36.010Z,57.30
2017-11-17T16:40:04.047Z,49.50
2017-11-17T16:42:35.734Z,49.35
2017-11-17T16:45:04.722Z,57.00
2017-11-17T16:47:33.714Z,49.60
2017-11-17T16:50:07.122Z,47.22
2017-11-17T16:52:36.098Z,45.65
2017-11-17T16:55:08.582Z,51.45
2017-11-17T16:57:44.298Z,56.47
2017-11-17T17:00:14.474Z,61.75
2017-11-17T17:02:43.258Z,52.55
2017-11-17T17:05:15.210Z,55.63
2017-11-17T17:07:43.236Z,52.53
2017-11-17T17:10:12.262Z,73.65
2017-11-17T17:12:40.287Z,53.00
2017-11-17T17:15:08.750Z,52.85
2017-11-17T17:17:36.914Z,58.13
2017-11-17T17:20:10.226Z,54.90
2017-11-17T17:22:38.309Z,54.30
2017-11-17T17:25:07.343Z,41.15
2017-11-17T17:27:36.459Z,47.40
2017-11-17T17:30:04.478Z,54.28
2017-11-17T17:32:32.498Z,48.40
2017-11-17T17:35:01.300Z,44.95
2017-11-17T17:37:29.326Z,47.08
2017-11-17T17:39:58.330Z,46.15
2017-11-17T17:42:26.398Z,44.03
2017-11-17T17:44:58.150Z,39.30
2017-11-17T17:47:29.110Z,76.10
2017-11-17T17:49:57.920Z,59.20
2017-11-17T17:52:26.703Z,115.95
2017-11-17T17:54:54.730Z,65.68
2017-11-17T17:57:23.729Z,58.80
2017-11-17T18:00:02.632Z,60.25
2017-11-17T18:02:35.767Z,61.42
2017-11-17T18:05:08.643Z,51.60
2017-11-17T18:07:40.816Z,61.92
2017-11-17T18:10:09.619Z,59.63
2017-11-17T18:12:38.545Z,56.97
2017-11-17T18:15:08.050Z,50.97
2017-11-17T18:17:36.087Z,59.78
2017-11-17T18:20:04.118Z,70.45
2017-11-17T18:22:32.178Z,59.58
2017-11-17T18:25:00.193Z,59.92
2017-11-17T18:27:28.986Z,66.07
2017-11-17T18:29:58.958Z,54.47
2017-11-17T18:32:27.007Z,63.38
2017-11-17T18:34:55.942Z,69.80
2017-11-17T18:37:28.303Z,67.40
2017-11-17T18:39:56.296Z,69.47
2017-11-17T18:42:24.340Z,64.15
2017-11-17T18:44:57.230Z,72.50
2017-11-17T18:47:27.945Z,69.30
2017-11-17T18:49:57.905Z,73.97
2017-11-17T18:52:27.832Z,67.55
2017-11-17T18:54:55.857Z,71.60
2017-11-17T18:57:24.709Z,76.70
2017-11-17T18:59:57.059Z,83.80
2017-11-17T19:02:25.039Z,72.07
2017-11-17T19:04:54.081Z,69.40
2017-11-17T19:07:22.089Z,75.95
2017-11-17T19:09:50.929Z,70.45
2017-11-17T19:12:19.000Z,77.35
2017-11-17T19:14:47.898Z,83.55
2017-11-17T19:17:15.945Z,80.43
2017-11-17T19:19:45.881Z,78.60
2017-11-17T19:22:18.350Z,85.55
2017-11-17T19:24:46.381Z,75.18
2017-11-17T19:27:14.430Z,101.95
2017-11-17T19:29:46.046Z,91.50
2017-11-17T19:32:14.090Z,78.32
2017-11-17T19:34:42.522Z,84.68
2017-11-17T19:37:11.331Z,74.12
2017-11-17T19:39:42.639Z,82.62
2017-11-17T19:42:11.454Z,78.03
2017-11-17T19:44:39.482Z,63.13
2017-11-17T19:47:08.513Z,71.53
2017-11-17T19:49:37.489Z,68.80
2017-11-17T19:52:08.205Z,74.85
2017-11-17T19:54:36.233Z,74.85
2017-11-17T19:57:06.197Z,60.05
2017-11-17T19:59:34.989Z,70.05
2017-11-17T20:02:03.794Z,74.20
2017-11-17T20:04:32.762Z,67.57
2017-11-17T20:07:00.798Z,69.72
2017-11-17T20:09:28.838Z,69.82
2017-11-17T20:11:58.914Z,71.25
2017-11-17T20:14:26.945Z,67.60
2017-11-17T20:16:54.985Z,62.90
2017-11-17T20:19:25.717Z,69.03
2017-11-17T20:21:53.741Z,60.42
2017-11-17T20:24:22.749Z,65.43
2017-11-17T20:26:53.785Z,68.00
2017-11-17T20:29:22.773Z,67.62
2017-11-17T20:31:58.502Z,222.12
2017-11-17T20:34:26.532Z,94.22
2017-11-17T20:36:54.561Z,67.15
2017-11-17T20:39:29.486Z,81.95
2017-11-17T20:42:08.689Z,78.40
2017-11-17T20:44:39.473Z,76.18
2017-11-17T20:47:08.390Z,72.80
2017-11-17T20:49:41.152Z,81.75
2017-11-17T20:52:09.966Z,82.78
2017-11-17T20:54:37.973Z,79.10
2017-11-17T20:57:09.757Z,71.85
2017-11-17T20:59:38.732Z,77.22
2017-11-17T21:02:07.725Z,94.45
2017-11-17T21:04:35.785Z,95.78
2017-11-17T21:07:04.797Z,87.45
2017-11-17T21:09:33.050Z,81.00
2017-11-17T21:12:08.394Z,96.82
2017-11-17T21:14:56.517Z,69.28
2017-11-17T21:17:26.437Z,82.50
2017-11-17T21:19:57.924Z,81.30
2017-11-17T21:22:31.042Z,85.07
2017-11-17T21:24:59.073Z,71.57
2017-11-17T21:27:28.060Z,69.90
2017-11-17T21:29:59.127Z,81.63
2017-11-17T21:32:31.176Z,81.50
2017-11-17T21:35:00.173Z,87.05
2017-11-17T21:37:38.136Z,103.78
2017-11-17T21:40:06.172Z,96.20
2017-11-17T21:42:34.192Z,99.22
2017-11-17T21:45:02.221Z,95.70
2017-11-17T21:47:30.257Z,94.97
2017-11-17T21:50:02.821Z,92.22
2017-11-17T21:52:37.404Z,102.43
2017-11-17T21:55:07.361Z,92.30
2017-11-17T21:57:35.392Z,94.60
2017-11-17T22:00:06.789Z,96.10
2017-11-17T22:02:39.964Z,94.60
2017-11-17T22:05:07.988Z,99.15
2017-11-17T22:07:36.017Z,85.90
2017-11-17T22:10:04.830Z,86.05
2017-11-17T22:12:35.533Z,85.43
2017-11-17T22:15:03.568Z,76.60
2017-11-17T22:17:31.601Z,78.15
2017-11-17T22:19:59.636Z,71.53
2017-11-17T22:22:28.612Z,80.90
2017-11-17T22:24:56.632Z,75.32
2017-11-17T22:27:29.005Z,82.25
2017-11-17T22:29:57.038Z,78.35
2017-11-17T22:32:29.985Z,70.97
2017-11-17T22:34:58.012Z,68.68
2017-11-17T22:37:28.696Z,65.12
2017-11-17T22:40:08.660Z,66.55
2017-11-17T22:42:39.835Z,73.68
2017-11-17T22:45:07.869Z,67.53
2017-11-17T22:47:39.848Z,66.62
2017-11-17T22:50:09.873Z,67.37
2017-11-17T22:52:46.061Z,67.78
2017-11-17T22:55:14.100Z,64.82
2017-11-17T22:57:42.123Z,70.75
2017-11-17T23:00:10.137Z,58.70
2017-11-17T23:02:40.160Z,64.12
2017-11-17T23:05:09.080Z,71.62
2017-11-17T23:07:49.576Z,68.70
2017-11-17T23:10:21.147Z,60.17
2017-11-17T23:12:58.836Z,67.25
2017-11-17T23:15:26.856Z,49.25
2017-11-17T23:18:04.072Z,69.93
2017-11-17T23:20:34.183Z,62.60
2017-11-17T23:25:52.328Z,62.08
2017-11-17T23:28:38.080Z,60.80
2017-11-17T23:31:11.407Z,58.53
2017-11-17T23:33:42.211Z,65.12
2017-11-17T23:36:10.987Z,58.30
2017-11-17T23:38:39.963Z,68.62
2017-11-17T23:41:07.998Z,63.47
2017-11-17T23:43:37.948Z,68.93
2017-11-17T23:46:06.715Z,63.33
2017-11-17T23:48:35.584Z,64.60
2017-11-17T23:51:04.400Z,74.65
2017-11-17T23:53:34.123Z,67.87
2017-11-17T23:56:04.511Z,66.68
2017-11-17T23:58:32.824Z,91.37
